Bahia - Jorge Amado Airport
SBIL : rendu visible

Aérodrome :











RETROUVEZ-NOUS SUR...

 
LOGIN :

S'inscrire | Disclaimer

   EN    FR    IT 

 









Légende :    VFR   VFR Marginal   IFR   IFR Intensif   IFR Très Intensif
Visi : 
Plafond : 
>= 8 km
>= 3000ft
5 à 8 km
1000 à 3000 ft
1500m à 5 km
500 à 1000 ft
800 à 1500m
200 à 500 ft
< 800m
< 200 ft
Symboles :   Orages  Brouillard  Fortes neiges  Fortes précipitations  Vent > 20 kt






- Altitude de l'aérodrome : 15 ft
- Code IATA : IOS


SBIL - Bahia - Jorge Amado

METARs EXPIRÉS :
  • 050900Z 18002KT 8000 VCSH SCT013 BKN016 FEW029TCU 27/26 Q1012
  • 050800Z 17003KT 9999 BKN022 FEW030TCU 27/26 Q1012 RETS

TAF TAF SBIL
Valide du 05 à 06h jusqu'au 05 à 18h UTC


050300 0506/0518 22005KT 9999 SCT020 TN28/0509Z TX31/0517Z
BECMG 0508/0510 15008KT
BECMG 0515/0517 SCT020 FEW025TCU RMK PDL



MET'MAP, la Météo Aéronautique d'un coup d'oeil ! - Copyright ORBIFLY Décembre 2007 - Disclaimer

ORBIFLY MET'MAP TEAM :

Programmation & Développement : Alexandra Zaïnal
Sur une idée originale de : Baudouin d'Aumeries
Assistance à la programmation : Marc-Olivier Méhu
Soutien technique & logistique : Manuel Goepfert

Contact : metmap@orbifly.com




SOURCES & CREDITS :

   NOAA       Earth
Advisory